sensor_id;sensor_type;location;lat;lon;timestamp;temperature;humidity
2220;DHT22;1116;51.502;7.414;2023-08-20T00:02:32;21.60;78.90
2220;DHT22;1116;51.502;7.414;2023-08-20T00:05:05;21.50;77.80
2220;DHT22;1116;51.502;7.414;2023-08-20T00:07:38;21.50;79.00
2220;DHT22;1116;51.502;7.414;2023-08-20T00:10:10;21.50;80.30
2220;DHT22;1116;51.502;7.414;2023-08-20T00:12:42;21.60;80.60
2220;DHT22;1116;51.502;7.414;2023-08-20T00:15:15;21.70;80.00
2220;DHT22;1116;51.502;7.414;2023-08-20T00:17:48;21.60;78.20
2220;DHT22;1116;51.502;7.414;2023-08-20T00:20:21;21.40;76.90
2220;DHT22;1116;51.502;7.414;2023-08-20T00:22:53;21.40;78.90
2220;DHT22;1116;51.502;7.414;2023-08-20T00:25:25;21.50;79.40
2220;DHT22;1116;51.502;7.414;2023-08-20T00:27:56;21.60;80.20
2220;DHT22;1116;51.502;7.414;2023-08-20T00:30:30;21.60;79.60
2220;DHT22;1116;51.502;7.414;2023-08-20T00:33:01;21.50;77.70
2220;DHT22;1116;51.502;7.414;2023-08-20T00:35:33;21.50;80.50
2220;DHT22;1116;51.502;7.414;2023-08-20T00:38:04;21.40;79.10
2220;DHT22;1116;51.502;7.414;2023-08-20T00:40:36;21.40;79.20
2220;DHT22;1116;51.502;7.414;2023-08-20T00:43:07;21.40;80.50
2220;DHT22;1116;51.502;7.414;2023-08-20T00:45:41;21.50;81.10
2220;DHT22;1116;51.502;7.414;2023-08-20T00:48:13;21.50;79.30
2220;DHT22;1116;51.502;7.414;2023-08-20T00:50:45;21.50;78.50
2220;DHT22;1116;51.502;7.414;2023-08-20T00:53:16;21.50;80.50
2220;DHT22;1116;51.502;7.414;2023-08-20T00:55:48;21.60;78.80
2220;DHT22;1116;51.502;7.414;2023-08-20T00:58:19;21.40;79.50
2220;DHT22;1116;51.502;7.414;2023-08-20T01:00:53;21.40;80.50
2220;DHT22;1116;51.502;7.414;2023-08-20T01:03:24;21.50;82.40
2220;DHT22;1116;51.502;7.414;2023-08-20T01:06:05;21.40;78.20
2220;DHT22;1116;51.502;7.414;2023-08-20T01:08:52;21.40;81.70
2220;DHT22;1116;51.502;7.414;2023-08-20T01:11:33;21.40;81.00
2220;DHT22;1116;51.502;7.414;2023-08-20T01:14:14;21.40;84.10
2220;DHT22;1116;51.502;7.414;2023-08-20T01:16:48;21.50;83.30
2220;DHT22;1116;51.502;7.414;2023-08-20T01:19:22;21.40;83.60
2220;DHT22;1116;51.502;7.414;2023-08-20T01:22:05;21.50;84.10
2220;DHT22;1116;51.502;7.414;2023-08-20T01:24:47;21.40;83.80
2220;DHT22;1116;51.502;7.414;2023-08-20T01:27:38;21.50;82.00
2220;DHT22;1116;51.502;7.414;2023-08-20T01:30:15;21.50;80.50
2220;DHT22;1116;51.502;7.414;2023-08-20T01:32:48;21.50;81.70
2220;DHT22;1116;51.502;7.414;2023-08-20T01:35:20;21.50;80.50
2220;DHT22;1116;51.502;7.414;2023-08-20T01:37:54;21.50;82.60
2220;DHT22;1116;51.502;7.414;2023-08-20T01:40:25;21.50;80.20
2220;DHT22;1116;51.502;7.414;2023-08-20T01:42:57;21.40;78.60
2220;DHT22;1116;51.502;7.414;2023-08-20T01:45:31;21.30;80.20
2220;DHT22;1116;51.502;7.414;2023-08-20T01:48:02;21.20;81.80
2220;DHT22;1116;51.502;7.414;2023-08-20T01:50:35;21.30;80.40
2220;DHT22;1116;51.502;7.414;2023-08-20T01:53:08;21.30;80.00
2220;DHT22;1116;51.502;7.414;2023-08-20T01:55:39;21.20;79.70
2220;DHT22;1116;51.502;7.414;2023-08-20T01:58:10;21.10;79.60
2220;DHT22;1116;51.502;7.414;2023-08-20T02:00:45;21.00;80.80
2220;DHT22;1116;51.502;7.414;2023-08-20T02:03:16;21.10;80.20
2220;DHT22;1116;51.502;7.414;2023-08-20T02:05:47;21.10;79.20
2220;DHT22;1116;51.502;7.414;2023-08-20T02:08:19;21.00;79.20
2220;DHT22;1116;51.502;7.414;2023-08-20T02:10:50;21.10;80.20
2220;DHT22;1116;51.502;7.414;2023-08-20T02:13:21;21.10;79.80
2220;DHT22;1116;51.502;7.414;2023-08-20T02:16:00;21.00;78.50
2220;DHT22;1116;51.502;7.414;2023-08-20T02:18:32;21.00;80.90
2220;DHT22;1116;51.502;7.414;2023-08-20T02:21:03;20.90;77.90
2220;DHT22;1116;51.502;7.414;2023-08-20T02:23:35;21.00;80.90
2220;DHT22;1116;51.502;7.414;2023-08-20T02:26:06;20.90;79.00
2220;DHT22;1116;51.502;7.414;2023-08-20T02:28:37;20.90;80.10
2220;DHT22;1116;51.502;7.414;2023-08-20T02:31:11;20.90;78.00
2220;DHT22;1116;51.502;7.414;2023-08-20T02:33:42;20.90;80.00
2220;DHT22;1116;51.502;7.414;2023-08-20T02:36:13;20.80;80.00
2220;DHT22;1116;51.502;7.414;2023-08-20T02:38:45;20.90;80.50
2220;DHT22;1116;51.502;7.414;2023-08-20T02:41:16;20.90;80.50
2220;DHT22;1116;51.502;7.414;2023-08-20T02:43:48;20.90;80.00
2220;DHT22;1116;51.502;7.414;2023-08-20T02:46:21;20.80;78.40
2220;DHT22;1116;51.502;7.414;2023-08-20T02:48:53;20.90;81.40
2220;DHT22;1116;51.502;7.414;2023-08-20T02:51:24;21.00;81.90
2220;DHT22;1116;51.502;7.414;2023-08-20T02:53:55;21.10;81.10
2220;DHT22;1116;51.502;7.414;2023-08-20T02:56:26;21.10;78.40
2220;DHT22;1116;51.502;7.414;2023-08-20T02:58:57;21.10;80.30
2220;DHT22;1116;51.502;7.414;2023-08-20T03:01:31;21.10;79.50
2220;DHT22;1116;51.502;7.414;2023-08-20T03:04:03;21.20;80.30
2220;DHT22;1116;51.502;7.414;2023-08-20T03:06:35;21.30;80.30
2220;DHT22;1116;51.502;7.414;2023-08-20T03:09:06;21.30;80.50
2220;DHT22;1116;51.502;7.414;2023-08-20T03:11:37;21.30;78.50
2220;DHT22;1116;51.502;7.414;2023-08-20T03:14:09;21.30;78.60
2220;DHT22;1116;51.502;7.414;2023-08-20T03:16:42;21.30;79.40
2220;DHT22;1116;51.502;7.414;2023-08-20T03:19:15;21.30;79.70
2220;DHT22;1116;51.502;7.414;2023-08-20T03:21:46;21.30;79.80
2220;DHT22;1116;51.502;7.414;2023-08-20T03:24:18;21.20;78.50
2220;DHT22;1116;51.502;7.414;2023-08-20T03:26:50;21.10;76.90
2220;DHT22;1116;51.502;7.414;2023-08-20T03:29:21;21.10;78.20
2220;DHT22;1116;51.502;7.414;2023-08-20T03:31:55;20.90;79.40
2220;DHT22;1116;51.502;7.414;2023-08-20T03:34:25;21.00;80.60
2220;DHT22;1116;51.502;7.414;2023-08-20T03:36:56;21.00;81.20
2220;DHT22;1116;51.502;7.414;2023-08-20T03:39:27;21.00;82.50
2220;DHT22;1116;51.502;7.414;2023-08-20T03:41:58;21.00;82.60
2220;DHT22;1116;51.502;7.414;2023-08-20T03:44:29;20.90;79.70
2220;DHT22;1116;51.502;7.414;2023-08-20T03:47:04;20.90;81.80
2220;DHT22;1116;51.502;7.414;2023-08-20T03:49:37;20.90;81.60
2220;DHT22;1116;51.502;7.414;2023-08-20T03:52:08;20.90;85.40
2220;DHT22;1116;51.502;7.414;2023-08-20T03:54:40;20.90;85.00
2220;DHT22;1116;51.502;7.414;2023-08-20T03:57:13;20.90;84.00
2220;DHT22;1116;51.502;7.414;2023-08-20T03:59:44;20.90;81.00
2220;DHT22;1116;51.502;7.414;2023-08-20T04:02:18;20.90;82.80
2220;DHT22;1116;51.502;7.414;2023-08-20T04:04:50;20.90;87.10
2220;DHT22;1116;51.502;7.414;2023-08-20T04:07:21;20.90;87.40
2220;DHT22;1116;51.502;7.414;2023-08-20T04:09:52;21.00;86.70
2220;DHT22;1116;51.502;7.414;2023-08-20T04:12:22;21.00;87.20
2220;DHT22;1116;51.502;7.414;2023-08-20T04:14:54;21.00;88.30
2220;DHT22;1116;51.502;7.414;2023-08-20T04:17:27;21.10;87.90
2220;DHT22;1116;51.502;7.414;2023-08-20T04:19:58;21.10;88.00
2220;DHT22;1116;51.502;7.414;2023-08-20T04:22:29;21.30;87.50
2220;DHT22;1116;51.502;7.414;2023-08-20T04:25:00;21.30;86.50
2220;DHT22;1116;51.502;7.414;2023-08-20T04:27:33;21.30;88.60
2220;DHT22;1116;51.502;7.414;2023-08-20T04:30:07;21.40;88.00
2220;DHT22;1116;51.502;7.414;2023-08-20T04:32:42;21.50;88.40
2220;DHT22;1116;51.502;7.414;2023-08-20T04:35:12;21.50;86.40
2220;DHT22;1116;51.502;7.414;2023-08-20T04:37:43;21.60;87.50
2220;DHT22;1116;51.502;7.414;2023-08-20T04:40:15;21.60;87.30
2220;DHT22;1116;51.502;7.414;2023-08-20T04:42:46;21.60;87.30
2220;DHT22;1116;51.502;7.414;2023-08-20T04:45:17;21.50;87.60
2220;DHT22;1116;51.502;7.414;2023-08-20T04:47:51;21.60;89.70
2220;DHT22;1116;51.502;7.414;2023-08-20T04:50:21;21.60;90.10
2220;DHT22;1116;51.502;7.414;2023-08-20T04:52:51;21.50;90.80
2220;DHT22;1116;51.502;7.414;2023-08-20T04:55:22;21.40;91.60
2220;DHT22;1116;51.502;7.414;2023-08-20T04:57:54;21.40;92.20
2220;DHT22;1116;51.502;7.414;2023-08-20T05:00:26;21.50;91.50
2220;DHT22;1116;51.502;7.414;2023-08-20T05:03:00;21.50;90.80
2220;DHT22;1116;51.502;7.414;2023-08-20T05:05:30;21.50;91.20
2220;DHT22;1116;51.502;7.414;2023-08-20T05:08:01;21.40;90.10
2220;DHT22;1116;51.502;7.414;2023-08-20T05:10:32;21.40;90.30
2220;DHT22;1116;51.502;7.414;2023-08-20T05:13:03;21.40;90.90
2220;DHT22;1116;51.502;7.414;2023-08-20T05:15:34;21.40;90.50
2220;DHT22;1116;51.502;7.414;2023-08-20T05:18:08;21.40;91.10
2220;DHT22;1116;51.502;7.414;2023-08-20T05:20:40;21.50;88.80
2220;DHT22;1116;51.502;7.414;2023-08-20T05:23:11;21.40;90.00
2220;DHT22;1116;51.502;7.414;2023-08-20T05:25:42;21.40;90.00
2220;DHT22;1116;51.502;7.414;2023-08-20T05:28:13;21.40;90.20
2220;DHT22;1116;51.502;7.414;2023-08-20T05:30:54;21.50;88.70
2220;DHT22;1116;51.502;7.414;2023-08-20T05:33:28;21.50;89.40
2220;DHT22;1116;51.502;7.414;2023-08-20T05:36:00;21.50;90.10
2220;DHT22;1116;51.502;7.414;2023-08-20T05:38:31;21.60;87.90
2220;DHT22;1116;51.502;7.414;2023-08-20T05:41:01;21.50;88.80
2220;DHT22;1116;51.502;7.414;2023-08-20T05:43:32;21.60;90.00
2220;DHT22;1116;51.502;7.414;2023-08-20T05:46:04;21.60;87.90
2220;DHT22;1116;51.502;7.414;2023-08-20T05:48:38;21.60;90.10
2220;DHT22;1116;51.502;7.414;2023-08-20T05:51:08;21.60;89.50
2220;DHT22;1116;51.502;7.414;2023-08-20T05:53:39;21.70;90.20
2220;DHT22;1116;51.502;7.414;2023-08-20T05:56:10;21.70;89.10
2220;DHT22;1116;51.502;7.414;2023-08-20T05:58:41;21.60;90.00
2220;DHT22;1116;51.502;7.414;2023-08-20T06:01:11;21.40;91.50
2220;DHT22;1116;51.502;7.414;2023-08-20T06:03:45;21.60;91.80
2220;DHT22;1116;51.502;7.414;2023-08-20T06:06:15;21.80;90.60
2220;DHT22;1116;51.502;7.414;2023-08-20T06:08:46;21.90;89.40
2220;DHT22;1116;51.502;7.414;2023-08-20T06:11:35;21.90;87.50
2220;DHT22;1116;51.502;7.414;2023-08-20T06:14:06;21.80;90.10
2220;DHT22;1116;51.502;7.414;2023-08-20T06:16:37;22.00;88.80
2220;DHT22;1116;51.502;7.414;2023-08-20T06:19:11;22.00;87.30
2220;DHT22;1116;51.502;7.414;2023-08-20T06:21:41;22.00;87.80
2220;DHT22;1116;51.502;7.414;2023-08-20T06:24:11;22.10;88.50
2220;DHT22;1116;51.502;7.414;2023-08-20T06:26:42;22.10;86.10
2220;DHT22;1116;51.502;7.414;2023-08-20T06:29:14;22.20;86.00
2220;DHT22;1116;51.502;7.414;2023-08-20T06:31:44;22.10;85.00
2220;DHT22;1116;51.502;7.414;2023-08-20T06:34:18;22.10;87.50
2220;DHT22;1116;51.502;7.414;2023-08-20T06:36:49;22.20;84.70
2220;DHT22;1116;51.502;7.414;2023-08-20T06:39:20;22.40;84.20
2220;DHT22;1116;51.502;7.414;2023-08-20T06:41:51;22.60;81.60
2220;DHT22;1116;51.502;7.414;2023-08-20T06:44:22;22.60;81.50
2220;DHT22;1116;51.502;7.414;2023-08-20T06:46:53;22.80;79.80
2220;DHT22;1116;51.502;7.414;2023-08-20T06:49:27;23.00;76.90
2220;DHT22;1116;51.502;7.414;2023-08-20T06:51:57;23.10;75.60
2220;DHT22;1116;51.502;7.414;2023-08-20T06:54:27;23.10;73.60
2220;DHT22;1116;51.502;7.414;2023-08-20T06:56:59;23.00;74.60
2220;DHT22;1116;51.502;7.414;2023-08-20T06:59:30;23.20;74.20
2220;DHT22;1116;51.502;7.414;2023-08-20T07:02:00;23.20;74.50
2220;DHT22;1116;51.502;7.414;2023-08-20T07:04:34;23.30;75.00
2220;DHT22;1116;51.502;7.414;2023-08-20T07:07:05;23.40;72.20
2220;DHT22;1116;51.502;7.414;2023-08-20T07:09:36;23.40;71.50
2220;DHT22;1116;51.502;7.414;2023-08-20T07:12:08;23.50;72.00
2220;DHT22;1116;51.502;7.414;2023-08-20T07:14:39;23.60;69.30
2220;DHT22;1116;51.502;7.414;2023-08-20T07:17:10;23.70;71.50
2220;DHT22;1116;51.502;7.414;2023-08-20T07:19:44;23.60;69.10
2220;DHT22;1116;51.502;7.414;2023-08-20T07:22:14;23.50;70.20
2220;DHT22;1116;51.502;7.414;2023-08-20T07:24:44;23.50;69.60
2220;DHT22;1116;51.502;7.414;2023-08-20T07:27:15;23.50;69.70
2220;DHT22;1116;51.502;7.414;2023-08-20T07:29:46;23.40;69.70
2220;DHT22;1116;51.502;7.414;2023-08-20T07:32:16;23.40;71.60
2220;DHT22;1116;51.502;7.414;2023-08-20T07:34:50;23.40;69.20
2220;DHT22;1116;51.502;7.414;2023-08-20T07:37:20;23.50;71.40
2220;DHT22;1116;51.502;7.414;2023-08-20T07:39:51;23.70;69.70
2220;DHT22;1116;51.502;7.414;2023-08-20T07:42:22;23.80;70.20
2220;DHT22;1116;51.502;7.414;2023-08-20T07:44:53;23.90;67.60
2220;DHT22;1116;51.502;7.414;2023-08-20T07:47:24;23.90;67.90
2220;DHT22;1116;51.502;7.414;2023-08-20T07:49:59;23.90;67.50
2220;DHT22;1116;51.502;7.414;2023-08-20T07:52:31;23.80;68.60
2220;DHT22;1116;51.502;7.414;2023-08-20T07:55:02;23.90;68.90
2220;DHT22;1116;51.502;7.414;2023-08-20T07:57:33;24.10;67.60
2220;DHT22;1116;51.502;7.414;2023-08-20T08:00:06;24.20;66.50
2220;DHT22;1116;51.502;7.414;2023-08-20T08:02:37;24.40;65.10
2220;DHT22;1116;51.502;7.414;2023-08-20T08:05:11;24.50;65.30
2220;DHT22;1116;51.502;7.414;2023-08-20T08:07:42;24.50;65.50
2220;DHT22;1116;51.502;7.414;2023-08-20T08:10:13;24.60;62.40
2220;DHT22;1116;51.502;7.414;2023-08-20T08:12:44;24.60;62.00
2220;DHT22;1116;51.502;7.414;2023-08-20T08:15:16;24.70;62.10
2220;DHT22;1116;51.502;7.414;2023-08-20T08:17:46;24.80;61.40
2220;DHT22;1116;51.502;7.414;2023-08-20T08:20:20;24.80;59.80
2220;DHT22;1116;51.502;7.414;2023-08-20T08:22:51;24.80;58.20
2220;DHT22;1116;51.502;7.414;2023-08-20T08:25:22;24.80;58.60
2220;DHT22;1116;51.502;7.414;2023-08-20T08:27:52;24.80;57.80
2220;DHT22;1116;51.502;7.414;2023-08-20T08:30:28;24.90;57.50
2220;DHT22;1116;51.502;7.414;2023-08-20T08:32:59;25.00;56.40
2220;DHT22;1116;51.502;7.414;2023-08-20T08:35:33;25.00;54.10
2220;DHT22;1116;51.502;7.414;2023-08-20T08:38:04;25.10;53.90
2220;DHT22;1116;51.502;7.414;2023-08-20T08:40:35;25.10;54.10
2220;DHT22;1116;51.502;7.414;2023-08-20T08:43:06;25.10;52.10
2220;DHT22;1116;51.502;7.414;2023-08-20T08:45:46;25.10;51.10
2220;DHT22;1116;51.502;7.414;2023-08-20T08:48:18;25.20;52.80
2220;DHT22;1116;51.502;7.414;2023-08-20T08:50:53;25.30;52.50
2220;DHT22;1116;51.502;7.414;2023-08-20T08:53:25;25.30;52.20
2220;DHT22;1116;51.502;7.414;2023-08-20T08:55:56;25.40;49.30
2220;DHT22;1116;51.502;7.414;2023-08-20T08:58:27;25.40;51.00
2220;DHT22;1116;51.502;7.414;2023-08-20T09:00:59;25.50;49.10
2220;DHT22;1116;51.502;7.414;2023-08-20T09:03:31;25.70;47.70
2220;DHT22;1116;51.502;7.414;2023-08-20T09:06:09;25.80;43.40
2220;DHT22;1116;51.502;7.414;2023-08-20T09:08:40;26.00;43.70
2220;DHT22;1116;51.502;7.414;2023-08-20T09:11:11;26.10;44.30
2220;DHT22;1116;51.502;7.414;2023-08-20T09:13:43;26.30;44.40
2220;DHT22;1116;51.502;7.414;2023-08-20T09:16:14;26.30;41.10
2220;DHT22;1116;51.502;7.414;2023-08-20T09:18:45;26.20;41.60
2220;DHT22;1116;51.502;7.414;2023-08-20T09:21:19;26.20;41.00
2220;DHT22;1116;51.502;7.414;2023-08-20T09:23:58;26.20;41.00
2220;DHT22;1116;51.502;7.414;2023-08-20T09:26:31;26.30;41.50
2220;DHT22;1116;51.502;7.414;2023-08-20T09:29:03;26.30;40.20
2220;DHT22;1116;51.502;7.414;2023-08-20T09:31:39;26.50;41.60
2220;DHT22;1116;51.502;7.414;2023-08-20T09:34:13;26.70;40.10
2220;DHT22;1116;51.502;7.414;2023-08-20T09:36:46;26.80;39.20
2220;DHT22;1116;51.502;7.414;2023-08-20T09:39:17;26.80;38.10
2220;DHT22;1116;51.502;7.414;2023-08-20T09:41:49;26.70;38.00
2220;DHT22;1116;51.502;7.414;2023-08-20T09:44:21;26.60;38.10
2220;DHT22;1116;51.502;7.414;2023-08-20T09:46:53;26.70;40.00
2220;DHT22;1116;51.502;7.414;2023-08-20T09:49:28;26.70;38.20
2220;DHT22;1116;51.502;7.414;2023-08-20T09:52:05;27.00;38.50
2220;DHT22;1116;51.502;7.414;2023-08-20T09:54:52;27.00;36.80
2220;DHT22;1116;51.502;7.414;2023-08-20T09:57:33;26.90;36.80
2220;DHT22;1116;51.502;7.414;2023-08-20T10:00:08;27.30;40.10
2220;DHT22;1116;51.502;7.414;2023-08-20T10:02:41;29.70;30.60
2220;DHT22;1116;51.502;7.414;2023-08-20T10:05:12;31.40;24.40
2220;DHT22;1116;51.502;7.414;2023-08-20T10:07:45;32.80;20.80
2220;DHT22;1116;51.502;7.414;2023-08-20T10:10:16;31.80;22.50
2220;DHT22;1116;51.502;7.414;2023-08-20T10:12:47;31.00;23.90
2220;DHT22;1116;51.502;7.414;2023-08-20T10:15:18;30.30;25.90
2220;DHT22;1116;51.502;7.414;2023-08-20T10:17:50;29.40;27.70
2220;DHT22;1116;51.502;7.414;2023-08-20T10:20:20;28.70;28.50
2220;DHT22;1116;51.502;7.414;2023-08-20T10:23:00;27.90;30.00
2220;DHT22;1116;51.502;7.414;2023-08-20T10:25:31;27.70;31.20
2220;DHT22;1116;51.502;7.414;2023-08-20T10:28:12;27.70;31.30
2220;DHT22;1116;51.502;7.414;2023-08-20T10:31:06;27.80;31.90
2220;DHT22;1116;51.502;7.414;2023-08-20T10:33:49;27.60;30.70
2220;DHT22;1116;51.502;7.414;2023-08-20T10:36:21;27.40;32.70
2220;DHT22;1116;51.502;7.414;2023-08-20T10:39:04;29.00;29.60
2220;DHT22;1116;51.502;7.414;2023-08-20T10:41:36;30.50;26.40
2220;DHT22;1116;51.502;7.414;2023-08-20T10:44:06;29.80;27.00
2220;DHT22;1116;51.502;7.414;2023-08-20T10:46:49;28.90;29.00
2220;DHT22;1116;51.502;7.414;2023-08-20T10:49:21;28.50;30.00
2220;DHT22;1116;51.502;7.414;2023-08-20T10:51:52;28.00;31.60
2220;DHT22;1116;51.502;7.414;2023-08-20T10:54:26;27.90;33.40
2220;DHT22;1116;51.502;7.414;2023-08-20T10:56:58;27.90;35.00
2220;DHT22;1116;51.502;7.414;2023-08-20T10:59:29;29.20;30.90
2220;DHT22;1116;51.502;7.414;2023-08-20T11:02:00;31.00;26.70
2220;DHT22;1116;51.502;7.414;2023-08-20T11:04:32;30.60;26.20
2220;DHT22;1116;51.502;7.414;2023-08-20T11:07:03;30.00;25.40
2220;DHT22;1116;51.502;7.414;2023-08-20T11:09:36;30.50;24.80
2220;DHT22;1116;51.502;7.414;2023-08-20T11:12:08;32.20;23.40
2220;DHT22;1116;51.502;7.414;2023-08-20T11:14:38;33.50;21.20
2220;DHT22;1116;51.502;7.414;2023-08-20T11:17:08;33.60;18.80
2220;DHT22;1116;51.502;7.414;2023-08-20T11:19:39;33.90;17.50
2220;DHT22;1116;51.502;7.414;2023-08-20T11:22:18;34.20;16.70
2220;DHT22;1116;51.502;7.414;2023-08-20T11:24:51;34.60;15.80
2220;DHT22;1116;51.502;7.414;2023-08-20T11:27:26;34.30;16.20
2220;DHT22;1116;51.502;7.414;2023-08-20T11:29:58;33.90;16.10
2220;DHT22;1116;51.502;7.414;2023-08-20T11:32:30;33.80;16.00
2220;DHT22;1116;51.502;7.414;2023-08-20T11:35:01;34.30;17.70
2220;DHT22;1116;51.502;7.414;2023-08-20T11:37:32;35.30;13.90
2220;DHT22;1116;51.502;7.414;2023-08-20T11:40:07;36.00;11.70
2220;DHT22;1116;51.502;7.414;2023-08-20T11:42:38;34.90;14.40
2220;DHT22;1116;51.502;7.414;2023-08-20T11:45:10;34.10;15.80
2220;DHT22;1116;51.502;7.414;2023-08-20T11:47:41;33.50;18.10
2220;DHT22;1116;51.502;7.414;2023-08-20T11:50:12;33.60;14.90
2220;DHT22;1116;51.502;7.414;2023-08-20T11:52:42;32.50;17.60
2220;DHT22;1116;51.502;7.414;2023-08-20T11:55:14;31.30;19.90
2220;DHT22;1116;51.502;7.414;2023-08-20T11:57:52;30.50;23.00
2220;DHT22;1116;51.502;7.414;2023-08-20T12:00:26;30.00;24.40
2220;DHT22;1116;51.502;7.414;2023-08-20T12:02:58;30.20;24.50
2220;DHT22;1116;51.502;7.414;2023-08-20T12:05:28;29.90;25.00
2220;DHT22;1116;51.502;7.414;2023-08-20T12:08:00;30.10;25.60
2220;DHT22;1116;51.502;7.414;2023-08-20T12:10:35;31.10;25.60
2220;DHT22;1116;51.502;7.414;2023-08-20T12:13:05;32.20;22.00
2220;DHT22;1116;51.502;7.414;2023-08-20T12:15:36;32.30;23.30
2220;DHT22;1116;51.502;7.414;2023-08-20T12:18:06;31.70;22.00
2220;DHT22;1116;51.502;7.414;2023-08-20T12:20:38;30.60;24.80
2220;DHT22;1116;51.502;7.414;2023-08-20T12:23:10;29.80;25.50
2220;DHT22;1116;51.502;7.414;2023-08-20T12:25:43;29.30;28.10
2220;DHT22;1116;51.502;7.414;2023-08-20T12:28:16;29.00;28.10
2220;DHT22;1116;51.502;7.414;2023-08-20T12:30:48;29.00;28.70
2220;DHT22;1116;51.502;7.414;2023-08-20T12:33:20;29.10;29.80
2220;DHT22;1116;51.502;7.414;2023-08-20T12:35:54;29.20;29.20
2220;DHT22;1116;51.502;7.414;2023-08-20T12:38:26;29.00;29.60
2220;DHT22;1116;51.502;7.414;2023-08-20T12:41:04;28.90;29.60
2220;DHT22;1116;51.502;7.414;2023-08-20T12:43:34;28.90;29.40
2220;DHT22;1116;51.502;7.414;2023-08-20T12:46:05;28.80;32.70
2220;DHT22;1116;51.502;7.414;2023-08-20T12:48:35;29.10;29.10
2220;DHT22;1116;51.502;7.414;2023-08-20T12:51:07;29.40;29.30
2220;DHT22;1116;51.502;7.414;2023-08-20T12:53:41;29.80;28.40
2220;DHT22;1116;51.502;7.414;2023-08-20T12:56:15;29.90;27.40
2220;DHT22;1116;51.502;7.414;2023-08-20T12:58:47;30.00;26.10
2220;DHT22;1116;51.502;7.414;2023-08-20T13:01:18;30.30;26.00
2220;DHT22;1116;51.502;7.414;2023-08-20T13:03:50;30.40;26.20
2220;DHT22;1116;51.502;7.414;2023-08-20T13:06:23;30.30;24.60
2220;DHT22;1116;51.502;7.414;2023-08-20T13:08:55;30.20;26.10
2220;DHT22;1116;51.502;7.414;2023-08-20T13:11:30;30.30;25.20
2220;DHT22;1116;51.502;7.414;2023-08-20T13:14:01;30.30;25.00
2220;DHT22;1116;51.502;7.414;2023-08-20T13:16:32;30.00;26.10
2220;DHT22;1116;51.502;7.414;2023-08-20T13:19:04;30.10;26.90
2220;DHT22;1116;51.502;7.414;2023-08-20T13:21:36;30.20;26.00
2220;DHT22;1116;51.502;7.414;2023-08-20T13:24:08;30.30;25.50
2220;DHT22;1116;51.502;7.414;2023-08-20T13:26:42;30.10;25.20
2220;DHT22;1116;51.502;7.414;2023-08-20T13:29:12;30.00;25.50
2220;DHT22;1116;51.502;7.414;2023-08-20T13:31:44;30.00;25.80
2220;DHT22;1116;51.502;7.414;2023-08-20T13:34:16;30.20;27.20
2220;DHT22;1116;51.502;7.414;2023-08-20T13:36:47;30.60;27.10
2220;DHT22;1116;51.502;7.414;2023-08-20T13:39:18;30.80;24.00
2220;DHT22;1116;51.502;7.414;2023-08-20T13:41:52;31.10;23.80
2220;DHT22;1116;51.502;7.414;2023-08-20T13:44:22;31.00;21.90
2220;DHT22;1116;51.502;7.414;2023-08-20T13:46:52;31.10;21.40
2220;DHT22;1116;51.502;7.414;2023-08-20T13:49:23;30.80;21.50
2220;DHT22;1116;51.502;7.414;2023-08-20T13:51:55;30.60;24.80
2220;DHT22;1116;51.502;7.414;2023-08-20T13:54:27;30.80;22.40
2220;DHT22;1116;51.502;7.414;2023-08-20T13:57:01;30.90;21.90
2220;DHT22;1116;51.502;7.414;2023-08-20T13:59:32;31.00;21.10
2220;DHT22;1116;51.502;7.414;2023-08-20T14:02:05;31.00;21.10
2220;DHT22;1116;51.502;7.414;2023-08-20T14:04:35;30.90;21.60
2220;DHT22;1116;51.502;7.414;2023-08-20T14:07:10;30.80;22.60
2220;DHT22;1116;51.502;7.414;2023-08-20T14:09:41;30.90;22.60
2220;DHT22;1116;51.502;7.414;2023-08-20T14:12:15;30.60;22.80
2220;DHT22;1116;51.502;7.414;2023-08-20T14:14:46;30.40;22.30
2220;DHT22;1116;51.502;7.414;2023-08-20T14:17:17;30.30;24.60
2220;DHT22;1116;51.502;7.414;2023-08-20T14:19:47;30.20;23.90
2220;DHT22;1116;51.502;7.414;2023-08-20T14:22:18;30.20;24.60
2220;DHT22;1116;51.502;7.414;2023-08-20T14:24:49;30.30;23.70
2220;DHT22;1116;51.502;7.414;2023-08-20T14:27:23;30.60;23.60
2220;DHT22;1116;51.502;7.414;2023-08-20T14:29:53;30.70;23.10
2220;DHT22;1116;51.502;7.414;2023-08-20T14:32:23;30.80;23.70
2220;DHT22;1116;51.502;7.414;2023-08-20T14:34:54;30.80;20.80
2220;DHT22;1116;51.502;7.414;2023-08-20T14:37:26;30.30;21.70
2220;DHT22;1116;51.502;7.414;2023-08-20T14:39:57;30.10;22.50
2220;DHT22;1116;51.502;7.414;2023-08-20T14:42:30;30.00;23.30
2220;DHT22;1116;51.502;7.414;2023-08-20T14:45:01;29.70;24.30
2220;DHT22;1116;51.502;7.414;2023-08-20T14:47:32;29.30;24.00
2220;DHT22;1116;51.502;7.414;2023-08-20T14:50:05;29.30;24.00
2220;DHT22;1116;51.502;7.414;2023-08-20T14:52:37;29.20;25.00
2220;DHT22;1116;51.502;7.414;2023-08-20T14:55:07;29.20;25.00
2220;DHT22;1116;51.502;7.414;2023-08-20T14:57:41;29.10;25.10
2220;DHT22;1116;51.502;7.414;2023-08-20T15:00:19;29.00;26.30
2220;DHT22;1116;51.502;7.414;2023-08-20T15:02:52;29.20;25.40
2220;DHT22;1116;51.502;7.414;2023-08-20T15:05:23;29.20;25.90
2220;DHT22;1116;51.502;7.414;2023-08-20T15:07:54;29.00;25.70
2220;DHT22;1116;51.502;7.414;2023-08-20T15:10:26;28.70;26.70
2220;DHT22;1116;51.502;7.414;2023-08-20T15:12:59;28.60;28.40
2220;DHT22;1116;51.502;7.414;2023-08-20T15:15:31;28.40;27.20
2220;DHT22;1116;51.502;7.414;2023-08-20T15:18:01;28.40;29.20
2220;DHT22;1116;51.502;7.414;2023-08-20T15:20:31;28.40;28.00
2220;DHT22;1116;51.502;7.414;2023-08-20T15:23:02;28.50;28.80
2220;DHT22;1116;51.502;7.414;2023-08-20T15:25:33;28.40;27.60
2220;DHT22;1116;51.502;7.414;2023-08-20T15:28:07;28.30;27.50
2220;DHT22;1116;51.502;7.414;2023-08-20T15:30:39;28.10;27.10
2220;DHT22;1116;51.502;7.414;2023-08-20T15:33:09;27.90;27.20
2220;DHT22;1116;51.502;7.414;2023-08-20T15:35:41;27.90;27.80
2220;DHT22;1116;51.502;7.414;2023-08-20T15:38:11;27.90;26.70
2220;DHT22;1116;51.502;7.414;2023-08-20T15:40:42;27.90;28.40
2220;DHT22;1116;51.502;7.414;2023-08-20T15:43:16;28.00;29.00
2220;DHT22;1116;51.502;7.414;2023-08-20T15:45:46;28.10;27.40
2220;DHT22;1116;51.502;7.414;2023-08-20T15:48:18;28.20;27.50
2220;DHT22;1116;51.502;7.414;2023-08-20T15:50:48;28.10;27.00
2220;DHT22;1116;51.502;7.414;2023-08-20T15:53:19;28.10;26.80
2220;DHT22;1116;51.502;7.414;2023-08-20T15:55:50;28.20;26.90
2220;DHT22;1116;51.502;7.414;2023-08-20T15:58:24;28.20;27.00
2220;DHT22;1116;51.502;7.414;2023-08-20T16:00:54;28.20;27.00
2220;DHT22;1116;51.502;7.414;2023-08-20T16:03:24;28.20;27.20
2220;DHT22;1116;51.502;7.414;2023-08-20T16:05:55;28.20;27.60
2220;DHT22;1116;51.502;7.414;2023-08-20T16:08:29;28.20;27.00
2220;DHT22;1116;51.502;7.414;2023-08-20T16:11:00;28.30;25.90
2220;DHT22;1116;51.502;7.414;2023-08-20T16:13:34;28.20;26.10
2220;DHT22;1116;51.502;7.414;2023-08-20T16:16:05;28.30;24.40
2220;DHT22;1116;51.502;7.414;2023-08-20T16:18:35;28.30;23.80
2220;DHT22;1116;51.502;7.414;2023-08-20T16:21:06;28.20;24.50
2220;DHT22;1116;51.502;7.414;2023-08-20T16:23:38;28.20;25.40
2220;DHT22;1116;51.502;7.414;2023-08-20T16:26:09;28.20;25.00
2220;DHT22;1116;51.502;7.414;2023-08-20T16:28:43;28.10;25.00
2220;DHT22;1116;51.502;7.414;2023-08-20T16:31:13;28.20;25.80
2220;DHT22;1116;51.502;7.414;2023-08-20T16:33:44;28.30;24.90
2220;DHT22;1116;51.502;7.414;2023-08-20T16:36:15;28.30;23.90